sensor_id;sensor_type;location;lat;lon;timestamp;P1;durP1;ratioP1;P2;durP2;ratioP2
76123;SDS011;65173;48.066;20.976;2023-01-29T00:02:11;28.17;;;10.15;;
76123;SDS011;65173;48.066;20.976;2023-01-29T00:05:13;22.48;;;7.93;;
76123;SDS011;65173;48.066;20.976;2023-01-29T00:08:29;20.90;;;7.72;;
76123;SDS011;65173;48.066;20.976;2023-01-29T00:11:31;17.43;;;7.27;;
76123;SDS011;65173;48.066;20.976;2023-01-29T00:14:34;20.08;;;7.20;;
76123;SDS011;65173;48.066;20.976;2023-01-29T00:17:37;23.17;;;9.23;;
76123;SDS011;65173;48.066;20.976;2023-01-29T00:20:42;22.57;;;7.67;;
76123;SDS011;65173;48.066;20.976;2023-01-29T00:23:44;15.70;;;6.30;;
76123;SDS011;65173;48.066;20.976;2023-01-29T00:26:48;18.35;;;6.45;;
76123;SDS011;65173;48.066;20.976;2023-01-29T00:29:51;17.45;;;6.38;;
76123;SDS011;65173;48.066;20.976;2023-01-29T00:33:10;23.15;;;7.20;;
76123;SDS011;65173;48.066;20.976;2023-01-29T00:36:15;12.40;;;5.20;;
76123;SDS011;65173;48.066;20.976;2023-01-29T00:39:19;15.95;;;5.28;;
76123;SDS011;65173;48.066;20.976;2023-01-29T00:42:37;8.53;;;4.07;;
76123;SDS011;65173;48.066;20.976;2023-01-29T00:45:59;9.48;;;3.70;;
76123;SDS011;65173;48.066;20.976;2023-01-29T00:49:02;13.82;;;5.00;;
76123;SDS011;65173;48.066;20.976;2023-01-29T00:52:05;9.93;;;3.60;;
76123;SDS011;65173;48.066;20.976;2023-01-29T00:55:26;11.98;;;4.20;;
76123;SDS011;65173;48.066;20.976;2023-01-29T00:58:29;9.32;;;4.38;;
76123;SDS011;65173;48.066;20.976;2023-01-29T01:01:35;15.40;;;4.97;;
76123;SDS011;65173;48.066;20.976;2023-01-29T01:04:56;9.77;;;4.28;;
76123;SDS011;65173;48.066;20.976;2023-01-29T01:07:59;9.82;;;3.00;;
76123;SDS011;65173;48.066;20.976;2023-01-29T01:11:03;6.43;;;2.92;;
76123;SDS011;65173;48.066;20.976;2023-01-29T01:14:07;7.97;;;3.53;;
76123;SDS011;65173;48.066;20.976;2023-01-29T01:17:10;8.30;;;4.43;;
76123;SDS011;65173;48.066;20.976;2023-01-29T01:20:13;12.40;;;4.90;;
76123;SDS011;65173;48.066;20.976;2023-01-29T01:23:17;8.97;;;3.90;;
76123;SDS011;65173;48.066;20.976;2023-01-29T01:26:20;9.40;;;3.33;;
76123;SDS011;65173;48.066;20.976;2023-01-29T01:29:23;7.40;;;3.65;;
76123;SDS011;65173;48.066;20.976;2023-01-29T01:32:26;12.52;;;4.53;;
76123;SDS011;65173;48.066;20.976;2023-01-29T01:35:28;7.15;;;3.08;;
76123;SDS011;65173;48.066;20.976;2023-01-29T01:38:32;8.35;;;3.83;;
76123;SDS011;65173;48.066;20.976;2023-01-29T01:41:35;11.13;;;4.28;;
76123;SDS011;65173;48.066;20.976;2023-01-29T01:48:22;6.63;;;2.08;;
76123;SDS011;65173;48.066;20.976;2023-01-29T01:51:28;8.80;;;3.78;;
76123;SDS011;65173;48.066;20.976;2023-01-29T01:54:34;14.37;;;4.20;;
76123;SDS011;65173;48.066;20.976;2023-01-29T01:57:36;5.10;;;2.10;;
76123;SDS011;65173;48.066;20.976;2023-01-29T02:00:39;6.40;;;3.60;;
76123;SDS011;65173;48.066;20.976;2023-01-29T02:03:49;5.28;;;1.70;;
76123;SDS011;65173;48.066;20.976;2023-01-29T02:07:21;7.72;;;3.47;;
76123;SDS011;65173;48.066;20.976;2023-01-29T02:10:45;11.63;;;3.53;;
76123;SDS011;65173;48.066;20.976;2023-01-29T02:13:49;10.60;;;4.65;;
76123;SDS011;65173;48.066;20.976;2023-01-29T02:17:00;10.60;;;4.00;;
76123;SDS011;65173;48.066;20.976;2023-01-29T02:27:18;12.37;;;4.40;;
76123;SDS011;65173;48.066;20.976;2023-01-29T02:40:15;11.00;;;4.00;;
76123;SDS011;65173;48.066;20.976;2023-01-29T02:43:29;11.65;;;4.30;;
76123;SDS011;65173;48.066;20.976;2023-01-29T02:49:47;9.70;;;4.20;;
76123;SDS011;65173;48.066;20.976;2023-01-29T02:53:05;10.90;;;4.65;;
76123;SDS011;65173;48.066;20.976;2023-01-29T02:56:21;14.88;;;4.82;;
76123;SDS011;65173;48.066;20.976;2023-01-29T02:59:31;9.00;;;3.93;;
76123;SDS011;65173;48.066;20.976;2023-01-29T03:02:47;11.35;;;4.70;;
76123;SDS011;65173;48.066;20.976;2023-01-29T03:06:06;13.38;;;4.85;;
76123;SDS011;65173;48.066;20.976;2023-01-29T03:09:33;12.38;;;4.10;;
76123;SDS011;65173;48.066;20.976;2023-01-29T03:12:44;9.05;;;3.75;;
76123;SDS011;65173;48.066;20.976;2023-01-29T03:15:54;10.15;;;4.10;;
76123;SDS011;65173;48.066;20.976;2023-01-29T03:19:15;11.30;;;3.72;;
76123;SDS011;65173;48.066;20.976;2023-01-29T03:22:22;12.73;;;4.03;;
76123;SDS011;65173;48.066;20.976;2023-01-29T03:25:27;8.20;;;3.85;;
76123;SDS011;65173;48.066;20.976;2023-01-29T03:28:50;12.98;;;4.57;;
76123;SDS011;65173;48.066;20.976;2023-01-29T03:32:12;10.93;;;4.73;;
76123;SDS011;65173;48.066;20.976;2023-01-29T03:35:18;12.80;;;4.25;;
76123;SDS011;65173;48.066;20.976;2023-01-29T03:38:39;9.80;;;4.15;;
76123;SDS011;65173;48.066;20.976;2023-01-29T03:41:47;5.75;;;2.80;;
76123;SDS011;65173;48.066;20.976;2023-01-29T03:51:37;12.82;;;4.80;;
76123;SDS011;65173;48.066;20.976;2023-01-29T03:58:28;9.43;;;3.85;;
76123;SDS011;65173;48.066;20.976;2023-01-29T04:04:44;10.77;;;4.53;;
76123;SDS011;65173;48.066;20.976;2023-01-29T04:07:52;11.65;;;4.32;;
76123;SDS011;65173;48.066;20.976;2023-01-29T04:11:01;11.88;;;4.90;;
76123;SDS011;65173;48.066;20.976;2023-01-29T04:14:10;12.48;;;4.10;;
76123;SDS011;65173;48.066;20.976;2023-01-29T04:17:17;11.10;;;5.28;;
76123;SDS011;65173;48.066;20.976;2023-01-29T04:20:36;11.43;;;5.32;;
76123;SDS011;65173;48.066;20.976;2023-01-29T04:23:39;12.05;;;5.43;;
76123;SDS011;65173;48.066;20.976;2023-01-29T04:26:49;13.37;;;5.13;;
76123;SDS011;65173;48.066;20.976;2023-01-29T04:30:14;16.90;;;6.28;;
76123;SDS011;65173;48.066;20.976;2023-01-29T04:40:23;13.70;;;6.70;;
76123;SDS011;65173;48.066;20.976;2023-01-29T04:43:39;13.05;;;5.85;;
76123;SDS011;65173;48.066;20.976;2023-01-29T04:46:52;15.60;;;5.55;;
76123;SDS011;65173;48.066;20.976;2023-01-29T04:57:13;12.82;;;6.03;;
76123;SDS011;65173;48.066;20.976;2023-01-29T05:00:28;14.57;;;6.27;;
76123;SDS011;65173;48.066;20.976;2023-01-29T05:03:35;13.27;;;6.35;;
76123;SDS011;65173;48.066;20.976;2023-01-29T05:06:40;12.32;;;5.72;;
76123;SDS011;65173;48.066;20.976;2023-01-29T05:09:44;15.60;;;6.70;;
76123;SDS011;65173;48.066;20.976;2023-01-29T05:12:55;16.58;;;6.25;;
76123;SDS011;65173;48.066;20.976;2023-01-29T05:16:04;17.58;;;7.15;;
76123;SDS011;65173;48.066;20.976;2023-01-29T05:19:13;15.52;;;6.28;;
76123;SDS011;65173;48.066;20.976;2023-01-29T05:22:17;16.70;;;6.28;;
76123;SDS011;65173;48.066;20.976;2023-01-29T05:25:25;14.07;;;6.82;;
76123;SDS011;65173;48.066;20.976;2023-01-29T05:28:30;19.27;;;6.60;;
76123;SDS011;65173;48.066;20.976;2023-01-29T05:31:33;18.37;;;6.57;;
76123;SDS011;65173;48.066;20.976;2023-01-29T05:34:35;15.15;;;6.32;;
76123;SDS011;65173;48.066;20.976;2023-01-29T05:37:38;20.35;;;8.05;;
76123;SDS011;65173;48.066;20.976;2023-01-29T05:40:53;19.13;;;7.07;;
76123;SDS011;65173;48.066;20.976;2023-01-29T05:43:56;18.35;;;7.25;;
76123;SDS011;65173;48.066;20.976;2023-01-29T05:46:59;19.63;;;8.10;;
76123;SDS011;65173;48.066;20.976;2023-01-29T05:50:04;17.80;;;7.28;;
76123;SDS011;65173;48.066;20.976;2023-01-29T05:53:08;20.75;;;7.57;;
76123;SDS011;65173;48.066;20.976;2023-01-29T05:56:12;18.33;;;7.57;;
76123;SDS011;65173;48.066;20.976;2023-01-29T05:59:15;17.98;;;8.02;;
76123;SDS011;65173;48.066;20.976;2023-01-29T06:02:18;20.23;;;9.00;;
76123;SDS011;65173;48.066;20.976;2023-01-29T06:05:22;16.17;;;7.75;;
76123;SDS011;65173;48.066;20.976;2023-01-29T06:08:25;20.00;;;8.90;;
76123;SDS011;65173;48.066;20.976;2023-01-29T06:11:28;19.53;;;9.30;;
76123;SDS011;65173;48.066;20.976;2023-01-29T06:14:31;19.77;;;9.25;;
76123;SDS011;65173;48.066;20.976;2023-01-29T06:17:34;22.35;;;8.30;;
76123;SDS011;65173;48.066;20.976;2023-01-29T06:20:37;19.90;;;8.27;;
76123;SDS011;65173;48.066;20.976;2023-01-29T06:23:40;20.95;;;8.93;;
76123;SDS011;65173;48.066;20.976;2023-01-29T06:26:43;23.75;;;8.63;;
76123;SDS011;65173;48.066;20.976;2023-01-29T06:29:46;17.85;;;7.78;;
76123;SDS011;65173;48.066;20.976;2023-01-29T06:32:49;19.53;;;7.33;;
76123;SDS011;65173;48.066;20.976;2023-01-29T06:35:58;19.65;;;7.88;;
76123;SDS011;65173;48.066;20.976;2023-01-29T06:39:03;14.00;;;7.18;;
76123;SDS011;65173;48.066;20.976;2023-01-29T06:42:06;18.67;;;7.47;;
76123;SDS011;65173;48.066;20.976;2023-01-29T06:45:10;18.35;;;7.13;;
76123;SDS011;65173;48.066;20.976;2023-01-29T06:48:13;14.73;;;6.63;;
76123;SDS011;65173;48.066;20.976;2023-01-29T06:51:15;17.67;;;7.78;;
76123;SDS011;65173;48.066;20.976;2023-01-29T06:54:18;16.63;;;6.25;;
76123;SDS011;65173;48.066;20.976;2023-01-29T06:57:21;16.88;;;7.28;;
76123;SDS011;65173;48.066;20.976;2023-01-29T07:00:25;20.45;;;7.43;;
76123;SDS011;65173;48.066;20.976;2023-01-29T07:03:27;19.30;;;6.83;;
76123;SDS011;65173;48.066;20.976;2023-01-29T07:06:31;21.02;;;9.13;;
76123;SDS011;65173;48.066;20.976;2023-01-29T07:09:33;21.33;;;8.63;;
76123;SDS011;65173;48.066;20.976;2023-01-29T07:12:36;18.87;;;8.53;;
76123;SDS011;65173;48.066;20.976;2023-01-29T07:15:39;22.33;;;10.07;;
76123;SDS011;65173;48.066;20.976;2023-01-29T07:18:41;25.33;;;11.18;;
76123;SDS011;65173;48.066;20.976;2023-01-29T07:21:44;34.92;;;13.60;;
76123;SDS011;65173;48.066;20.976;2023-01-29T07:24:47;33.08;;;13.48;;
76123;SDS011;65173;48.066;20.976;2023-01-29T07:27:50;34.88;;;13.18;;
76123;SDS011;65173;48.066;20.976;2023-01-29T07:30:55;26.23;;;11.32;;
76123;SDS011;65173;48.066;20.976;2023-01-29T07:33:59;24.37;;;9.30;;
76123;SDS011;65173;48.066;20.976;2023-01-29T07:37:02;29.55;;;12.18;;
76123;SDS011;65173;48.066;20.976;2023-01-29T07:40:05;21.52;;;10.57;;
76123;SDS011;65173;48.066;20.976;2023-01-29T07:43:12;20.90;;;11.27;;
76123;SDS011;65173;48.066;20.976;2023-01-29T07:46:15;25.48;;;10.80;;
76123;SDS011;65173;48.066;20.976;2023-01-29T07:49:19;21.38;;;10.32;;
76123;SDS011;65173;48.066;20.976;2023-01-29T07:52:22;25.95;;;12.32;;
76123;SDS011;65173;48.066;20.976;2023-01-29T07:55:25;30.58;;;14.27;;
76123;SDS011;65173;48.066;20.976;2023-01-29T07:58:27;24.85;;;12.27;;
76123;SDS011;65173;48.066;20.976;2023-01-29T08:01:31;21.50;;;11.23;;
76123;SDS011;65173;48.066;20.976;2023-01-29T08:04:33;21.80;;;10.43;;
76123;SDS011;65173;48.066;20.976;2023-01-29T08:07:36;29.27;;;14.13;;
76123;SDS011;65173;48.066;20.976;2023-01-29T08:10:40;29.17;;;13.55;;
76123;SDS011;65173;48.066;20.976;2023-01-29T08:13:43;29.30;;;13.93;;
76123;SDS011;65173;48.066;20.976;2023-01-29T08:16:47;24.73;;;11.25;;
76123;SDS011;65173;48.066;20.976;2023-01-29T08:19:50;23.23;;;10.52;;
76123;SDS011;65173;48.066;20.976;2023-01-29T08:22:57;27.50;;;12.13;;
76123;SDS011;65173;48.066;20.976;2023-01-29T08:26:02;26.70;;;12.65;;
76123;SDS011;65173;48.066;20.976;2023-01-29T08:29:04;21.70;;;10.23;;
76123;SDS011;65173;48.066;20.976;2023-01-29T08:32:08;25.88;;;10.57;;
76123;SDS011;65173;48.066;20.976;2023-01-29T08:35:12;22.40;;;9.70;;
76123;SDS011;65173;48.066;20.976;2023-01-29T08:38:15;26.50;;;12.32;;
76123;SDS011;65173;48.066;20.976;2023-01-29T08:41:18;31.92;;;12.43;;
76123;SDS011;65173;48.066;20.976;2023-01-29T08:44:21;30.63;;;13.60;;
76123;SDS011;65173;48.066;20.976;2023-01-29T08:47:24;28.02;;;12.68;;
76123;SDS011;65173;48.066;20.976;2023-01-29T08:50:30;27.58;;;12.52;;
76123;SDS011;65173;48.066;20.976;2023-01-29T08:53:33;27.67;;;13.70;;
76123;SDS011;65173;48.066;20.976;2023-01-29T08:56:36;28.90;;;12.43;;
76123;SDS011;65173;48.066;20.976;2023-01-29T08:59:39;20.85;;;10.52;;
76123;SDS011;65173;48.066;20.976;2023-01-29T09:02:42;23.10;;;10.35;;
76123;SDS011;65173;48.066;20.976;2023-01-29T09:05:45;24.27;;;10.67;;
76123;SDS011;65173;48.066;20.976;2023-01-29T09:08:48;27.98;;;12.60;;
76123;SDS011;65173;48.066;20.976;2023-01-29T09:11:50;23.92;;;10.70;;
76123;SDS011;65173;48.066;20.976;2023-01-29T09:14:54;23.60;;;11.07;;
76123;SDS011;65173;48.066;20.976;2023-01-29T09:17:56;25.10;;;10.90;;
76123;SDS011;65173;48.066;20.976;2023-01-29T09:21:00;22.80;;;10.00;;
76123;SDS011;65173;48.066;20.976;2023-01-29T09:24:04;20.73;;;9.63;;
76123;SDS011;65173;48.066;20.976;2023-01-29T09:27:08;21.00;;;9.63;;
76123;SDS011;65173;48.066;20.976;2023-01-29T09:30:12;19.35;;;8.65;;
76123;SDS011;65173;48.066;20.976;2023-01-29T09:33:16;23.13;;;10.88;;
76123;SDS011;65173;48.066;20.976;2023-01-29T09:36:19;18.17;;;7.47;;
76123;SDS011;65173;48.066;20.976;2023-01-29T09:39:22;21.58;;;8.45;;
76123;SDS011;65173;48.066;20.976;2023-01-29T09:42:35;22.70;;;8.85;;
76123;SDS011;65173;48.066;20.976;2023-01-29T09:45:53;18.23;;;9.23;;
76123;SDS011;65173;48.066;20.976;2023-01-29T09:49:05;22.15;;;10.35;;
76123;SDS011;65173;48.066;20.976;2023-01-29T09:52:17;22.98;;;9.90;;
76123;SDS011;65173;48.066;20.976;2023-01-29T09:55:24;18.75;;;8.40;;
76123;SDS011;65173;48.066;20.976;2023-01-29T09:58:32;18.50;;;8.85;;
76123;SDS011;65173;48.066;20.976;2023-01-29T10:01:43;22.42;;;8.95;;
76123;SDS011;65173;48.066;20.976;2023-01-29T10:11:17;16.08;;;6.72;;
76123;SDS011;65173;48.066;20.976;2023-01-29T10:14:38;17.92;;;5.90;;
76123;SDS011;65173;48.066;20.976;2023-01-29T10:25:02;16.58;;;6.82;;
76123;SDS011;65173;48.066;20.976;2023-01-29T10:31:51;16.52;;;7.13;;
76123;SDS011;65173;48.066;20.976;2023-01-29T10:38:49;53.30;;;26.15;;
76123;SDS011;65173;48.066;20.976;2023-01-29T10:48:50;21.17;;;7.88;;
76123;SDS011;65173;48.066;20.976;2023-01-29T10:59:00;12.73;;;5.50;;
76123;SDS011;65173;48.066;20.976;2023-01-29T11:02:23;12.60;;;6.18;;
76123;SDS011;65173;48.066;20.976;2023-01-29T11:05:34;14.43;;;6.13;;
76123;SDS011;65173;48.066;20.976;2023-01-29T11:08:45;15.13;;;6.30;;
76123;SDS011;65173;48.066;20.976;2023-01-29T11:15:21;20.50;;;8.73;;
76123;SDS011;65173;48.066;20.976;2023-01-29T11:18:51;17.35;;;8.00;;
76123;SDS011;65173;48.066;20.976;2023-01-29T11:21:55;18.38;;;7.68;;
76123;SDS011;65173;48.066;20.976;2023-01-29T11:28:33;14.45;;;6.28;;
76123;SDS011;65173;48.066;20.976;2023-01-29T11:31:40;13.90;;;6.57;;
76123;SDS011;65173;48.066;20.976;2023-01-29T11:34:56;16.88;;;6.50;;
76123;SDS011;65173;48.066;20.976;2023-01-29T11:38:26;10.52;;;5.50;;
76123;SDS011;65173;48.066;20.976;2023-01-29T11:41:30;14.77;;;6.07;;
76123;SDS011;65173;48.066;20.976;2023-01-29T11:44:45;11.43;;;5.63;;
76123;SDS011;65173;48.066;20.976;2023-01-29T11:47:48;16.00;;;6.33;;
76123;SDS011;65173;48.066;20.976;2023-01-29T11:50:55;16.83;;;7.30;;
76123;SDS011;65173;48.066;20.976;2023-01-29T11:54:01;14.63;;;6.57;;
76123;SDS011;65173;48.066;20.976;2023-01-29T11:57:13;11.30;;;5.67;;
76123;SDS011;65173;48.066;20.976;2023-01-29T12:00:26;15.48;;;6.72;;
76123;SDS011;65173;48.066;20.976;2023-01-29T12:03:33;14.80;;;6.47;;
76123;SDS011;65173;48.066;20.976;2023-01-29T12:06:40;11.55;;;5.63;;
76123;SDS011;65173;48.066;20.976;2023-01-29T12:09:51;13.20;;;5.22;;
76123;SDS011;65173;48.066;20.976;2023-01-29T12:16:32;10.60;;;4.97;;
76123;SDS011;65173;48.066;20.976;2023-01-29T12:20:03;11.20;;;5.27;;
76123;SDS011;65173;48.066;20.976;2023-01-29T12:26:26;14.68;;;7.05;;
76123;SDS011;65173;48.066;20.976;2023-01-29T12:33:23;14.50;;;6.80;;
76123;SDS011;65173;48.066;20.976;2023-01-29T12:36:44;16.90;;;7.38;;
76123;SDS011;65173;48.066;20.976;2023-01-29T12:39:54;22.67;;;9.73;;
76123;SDS011;65173;48.066;20.976;2023-01-29T12:43:00;24.75;;;9.93;;
76123;SDS011;65173;48.066;20.976;2023-01-29T12:46:09;31.85;;;14.45;;
76123;SDS011;65173;48.066;20.976;2023-01-29T12:49:36;30.15;;;13.00;;
76123;SDS011;65173;48.066;20.976;2023-01-29T12:52:45;25.00;;;13.43;;
76123;SDS011;65173;48.066;20.976;2023-01-29T12:56:01;26.25;;;13.40;;
76123;SDS011;65173;48.066;20.976;2023-01-29T12:59:16;28.45;;;14.05;;
76123;SDS011;65173;48.066;20.976;2023-01-29T13:02:47;19.23;;;9.40;;
76123;SDS011;65173;48.066;20.976;2023-01-29T13:05:56;22.77;;;9.85;;
76123;SDS011;65173;48.066;20.976;2023-01-29T13:09:05;20.30;;;8.80;;
76123;SDS011;65173;48.066;20.976;2023-01-29T13:12:11;22.52;;;9.50;;
76123;SDS011;65173;48.066;20.976;2023-01-29T13:18:39;25.88;;;10.70;;
76123;SDS011;65173;48.066;20.976;2023-01-29T13:22:05;19.08;;;9.18;;
76123;SDS011;65173;48.066;20.976;2023-01-29T13:25:18;19.83;;;7.93;;
76123;SDS011;65173;48.066;20.976;2023-01-29T13:28:22;17.83;;;8.23;;
76123;SDS011;65173;48.066;20.976;2023-01-29T13:31:29;46.13;;;16.10;;
76123;SDS011;65173;48.066;20.976;2023-01-29T13:34:44;21.73;;;9.50;;
76123;SDS011;65173;48.066;20.976;2023-01-29T13:37:52;18.70;;;7.70;;
76123;SDS011;65173;48.066;20.976;2023-01-29T13:40:57;16.15;;;7.82;;
76123;SDS011;65173;48.066;20.976;2023-01-29T13:44:04;18.48;;;8.35;;
76123;SDS011;65173;48.066;20.976;2023-01-29T13:47:11;19.40;;;8.43;;
76123;SDS011;65173;48.066;20.976;2023-01-29T13:50:31;17.75;;;8.30;;
76123;SDS011;65173;48.066;20.976;2023-01-29T13:53:39;28.38;;;11.38;;
76123;SDS011;65173;48.066;20.976;2023-01-29T13:56:44;23.50;;;9.87;;
76123;SDS011;65173;48.066;20.976;2023-01-29T14:00:00;18.65;;;7.90;;
76123;SDS011;65173;48.066;20.976;2023-01-29T14:06:40;16.97;;;7.17;;
76123;SDS011;65173;48.066;20.976;2023-01-29T14:12:41;10.45;;;4.25;;
76123;SDS011;65173;48.066;20.976;2023-01-29T14:15:44;14.15;;;4.85;;
76123;SDS011;65173;48.066;20.976;2023-01-29T14:19:14;10.73;;;5.20;;
76123;SDS011;65173;48.066;20.976;2023-01-29T14:22:23;17.25;;;7.03;;
76123;SDS011;65173;48.066;20.976;2023-01-29T14:25:30;13.70;;;6.32;;
76123;SDS011;65173;48.066;20.976;2023-01-29T14:28:35;18.47;;;7.20;;
76123;SDS011;65173;48.066;20.976;2023-01-29T14:31:39;16.00;;;7.32;;
76123;SDS011;65173;48.066;20.976;2023-01-29T14:34:46;15.60;;;6.57;;
76123;SDS011;65173;48.066;20.976;2023-01-29T14:37:52;17.50;;;7.10;;
76123;SDS011;65173;48.066;20.976;2023-01-29T14:41:04;16.23;;;6.38;;
76123;SDS011;65173;48.066;20.976;2023-01-29T14:50:49;16.42;;;6.53;;
76123;SDS011;65173;48.066;20.976;2023-01-29T14:57:20;15.38;;;5.88;;
76123;SDS011;65173;48.066;20.976;2023-01-29T15:00:33;13.77;;;6.57;;
76123;SDS011;65173;48.066;20.976;2023-01-29T15:03:42;17.85;;;7.13;;
76123;SDS011;65173;48.066;20.976;2023-01-29T15:07:04;18.65;;;8.90;;
76123;SDS011;65173;48.066;20.976;2023-01-29T15:10:18;16.33;;;8.13;;
76123;SDS011;65173;48.066;20.976;2023-01-29T15:13:29;22.15;;;7.60;;
76123;SDS011;65173;48.066;20.976;2023-01-29T15:16:47;17.38;;;8.35;;
76123;SDS011;65173;48.066;20.976;2023-01-29T15:19:53;21.42;;;9.40;;
76123;SDS011;65173;48.066;20.976;2023-01-29T15:22:58;22.50;;;8.80;;
76123;SDS011;65173;48.066;20.976;2023-01-29T15:26:05;14.95;;;8.05;;
76123;SDS011;65173;48.066;20.976;2023-01-29T15:29:18;18.17;;;7.85;;
76123;SDS011;65173;48.066;20.976;2023-01-29T15:35:39;25.70;;;9.88;;
76123;SDS011;65173;48.066;20.976;2023-01-29T15:38:43;21.42;;;9.95;;
76123;SDS011;65173;48.066;20.976;2023-01-29T15:41:46;20.03;;;10.37;;
76123;SDS011;65173;48.066;20.976;2023-01-29T15:44:50;22.63;;;10.32;;
76123;SDS011;65173;48.066;20.976;2023-01-29T15:48:00;20.65;;;9.93;;
76123;SDS011;65173;48.066;20.976;2023-01-29T15:51:11;27.75;;;12.65;;
76123;SDS011;65173;48.066;20.976;2023-01-29T15:54:17;31.92;;;14.25;;
76123;SDS011;65173;48.066;20.976;2023-01-29T15:57:22;29.65;;;13.55;;
76123;SDS011;65173;48.066;20.976;2023-01-29T16:00:28;31.88;;;13.98;;
76123;SDS011;65173;48.066;20.976;2023-01-29T16:03:32;36.70;;;15.37;;
76123;SDS011;65173;48.066;20.976;2023-01-29T16:06:38;30.27;;;14.00;;
76123;SDS011;65173;48.066;20.976;2023-01-29T16:09:42;26.45;;;12.85;;
76123;SDS011;65173;48.066;20.976;2023-01-29T16:12:45;25.93;;;11.50;;
76123;SDS011;65173;48.066;20.976;2023-01-29T16:15:59;25.75;;;12.57;;
76123;SDS011;65173;48.066;20.976;2023-01-29T16:19:12;21.95;;;9.98;;
76123;SDS011;65173;48.066;20.976;2023-01-29T16:22:22;19.33;;;10.02;;
76123;SDS011;65173;48.066;20.976;2023-01-29T16:25:26;21.98;;;10.02;;
76123;SDS011;65173;48.066;20.976;2023-01-29T16:28:32;24.55;;;11.38;;
76123;SDS011;65173;48.066;20.976;2023-01-29T16:31:41;24.67;;;13.23;;
76123;SDS011;65173;48.066;20.976;2023-01-29T16:34:46;26.90;;;10.47;;
76123;SDS011;65173;48.066;20.976;2023-01-29T16:37:51;17.90;;;9.18;;
76123;SDS011;65173;48.066;20.976;2023-01-29T16:47:29;16.38;;;8.02;;
76123;SDS011;65173;48.066;20.976;2023-01-29T16:50:35;16.15;;;7.68;;
76123;SDS011;65173;48.066;20.976;2023-01-29T16:53:55;15.60;;;7.22;;
76123;SDS011;65173;48.066;20.976;2023-01-29T16:57:03;15.27;;;5.95;;
76123;SDS011;65173;48.066;20.976;2023-01-29T17:00:07;16.42;;;7.13;;
76123;SDS011;65173;48.066;20.976;2023-01-29T17:03:22;16.00;;;6.63;;
76123;SDS011;65173;48.066;20.976;2023-01-29T17:06:28;18.73;;;7.10;;
76123;SDS011;65173;48.066;20.976;2023-01-29T17:09:33;18.23;;;8.60;;
76123;SDS011;65173;48.066;20.976;2023-01-29T17:12:38;15.55;;;7.47;;
76123;SDS011;65173;48.066;20.976;2023-01-29T17:15:43;21.13;;;8.33;;
76123;SDS011;65173;48.066;20.976;2023-01-29T17:18:47;21.80;;;9.73;;
76123;SDS011;65173;48.066;20.976;2023-01-29T17:21:50;23.73;;;11.25;;
76123;SDS011;65173;48.066;20.976;2023-01-29T17:24:54;26.77;;;11.35;;
76123;SDS011;65173;48.066;20.976;2023-01-29T17:27:58;17.88;;;7.57;;
76123;SDS011;65173;48.066;20.976;2023-01-29T17:31:03;16.38;;;7.65;;
76123;SDS011;65173;48.066;20.976;2023-01-29T17:34:11;20.27;;;8.75;;
76123;SDS011;65173;48.066;20.976;2023-01-29T17:37:16;21.10;;;8.80;;
76123;SDS011;65173;48.066;20.976;2023-01-29T17:43:37;20.60;;;9.07;;
76123;SDS011;65173;48.066;20.976;2023-01-29T17:46:40;26.53;;;11.87;;
76123;SDS011;65173;48.066;20.976;2023-01-29T17:49:44;31.45;;;13.13;;
76123;SDS011;65173;48.066;20.976;2023-01-29T17:52:48;28.77;;;13.05;;
76123;SDS011;65173;48.066;20.976;2023-01-29T17:55:51;27.08;;;12.50;;
76123;SDS011;65173;48.066;20.976;2023-01-29T17:58:54;30.45;;;13.57;;
76123;SDS011;65173;48.066;20.976;2023-01-29T18:01:57;37.80;;;15.68;;
76123;SDS011;65173;48.066;20.976;2023-01-29T18:05:01;40.60;;;15.70;;
76123;SDS011;65173;48.066;20.976;2023-01-29T18:08:04;40.37;;;17.47;;
76123;SDS011;65173;48.066;20.976;2023-01-29T18:11:09;44.22;;;14.77;;
76123;SDS011;65173;48.066;20.976;2023-01-29T18:14:14;32.33;;;14.85;;
76123;SDS011;65173;48.066;20.976;2023-01-29T18:17:17;32.47;;;14.07;;
76123;SDS011;65173;48.066;20.976;2023-01-29T18:20:23;38.13;;;14.48;;
76123;SDS011;65173;48.066;20.976;2023-01-29T18:23:30;37.17;;;14.32;;
76123;SDS011;65173;48.066;20.976;2023-01-29T18:26:33;35.38;;;15.10;;
76123;SDS011;65173;48.066;20.976;2023-01-29T18:29:37;33.97;;;14.73;;
76123;SDS011;65173;48.066;20.976;2023-01-29T18:32:40;41.38;;;19.75;;
76123;SDS011;65173;48.066;20.976;2023-01-29T18:35:43;39.15;;;18.05;;
76123;SDS011;65173;48.066;20.976;2023-01-29T18:38:46;43.60;;;20.57;;
76123;SDS011;65173;48.066;20.976;2023-01-29T18:41:49;95.97;;;34.85;;
76123;SDS011;65173;48.066;20.976;2023-01-29T18:44:52;96.97;;;33.95;;
76123;SDS011;65173;48.066;20.976;2023-01-29T18:47:55;77.23;;;27.37;;
76123;SDS011;65173;48.066;20.976;2023-01-29T18:50:59;80.95;;;30.08;;
76123;SDS011;65173;48.066;20.976;2023-01-29T18:54:02;108.75;;;41.53;;
76123;SDS011;65173;48.066;20.976;2023-01-29T18:57:05;139.75;;;55.08;;
76123;SDS011;65173;48.066;20.976;2023-01-29T19:00:16;122.97;;;47.33;;
76123;SDS011;65173;48.066;20.976;2023-01-29T19:03:19;68.55;;;28.83;;
76123;SDS011;65173;48.066;20.976;2023-01-29T19:06:22;66.90;;;28.60;;
76123;SDS011;65173;48.066;20.976;2023-01-29T19:09:25;46.40;;;17.70;;
76123;SDS011;65173;48.066;20.976;2023-01-29T19:12:28;34.05;;;12.27;;
76123;SDS011;65173;48.066;20.976;2023-01-29T19:15:31;34.25;;;14.85;;
76123;SDS011;65173;48.066;20.976;2023-01-29T19:18:36;37.30;;;15.23;;
76123;SDS011;65173;48.066;20.976;2023-01-29T19:21:40;33.10;;;13.25;;
76123;SDS011;65173;48.066;20.976;2023-01-29T19:24:43;36.95;;;14.07;;
76123;SDS011;65173;48.066;20.976;2023-01-29T19:27:46;39.10;;;14.50;;
76123;SDS011;65173;48.066;20.976;2023-01-29T19:30:49;34.60;;;16.23;;
76123;SDS011;65173;48.066;20.976;2023-01-29T19:33:52;33.55;;;13.02;;
76123;SDS011;65173;48.066;20.976;2023-01-29T19:36:55;33.42;;;14.30;;
76123;SDS011;65173;48.066;20.976;2023-01-29T19:39:58;38.70;;;14.23;;
76123;SDS011;65173;48.066;20.976;2023-01-29T19:43:01;48.10;;;21.73;;
76123;SDS011;65173;48.066;20.976;2023-01-29T19:46:04;49.17;;;18.77;;
76123;SDS011;65173;48.066;20.976;2023-01-29T19:49:07;34.23;;;14.00;;
76123;SDS011;65173;48.066;20.976;2023-01-29T19:52:13;35.28;;;15.35;;
76123;SDS011;65173;48.066;20.976;2023-01-29T19:55:58;38.47;;;17.67;;
76123;SDS011;65173;48.066;20.976;2023-01-29T19:59:02;41.60;;;19.00;;
76123;SDS011;65173;48.066;20.976;2023-01-29T20:02:07;41.25;;;17.73;;
76123;SDS011;65173;48.066;20.976;2023-01-29T20:05:10;40.13;;;18.65;;
76123;SDS011;65173;48.066;20.976;2023-01-29T20:08:14;38.53;;;16.30;;
76123;SDS011;65173;48.066;20.976;2023-01-29T20:11:18;40.33;;;15.87;;
76123;SDS011;65173;48.066;20.976;2023-01-29T20:14:23;57.85;;;23.25;;
76123;SDS011;65173;48.066;20.976;2023-01-29T20:17:26;39.70;;;15.20;;
76123;SDS011;65173;48.066;20.976;2023-01-29T20:20:29;43.67;;;16.73;;
76123;SDS011;65173;48.066;20.976;2023-01-29T20:23:34;39.53;;;16.45;;
76123;SDS011;65173;48.066;20.976;2023-01-29T20:26:39;43.08;;;18.67;;
76123;SDS011;65173;48.066;20.976;2023-01-29T20:29:42;70.97;;;29.67;;